Time;durP1;ratioP1;P1;durP2;ratioP2;P2;SDS_P1;SDS_P2;PMS_P1;PMS_P2;Temp;Humidity;BMP_temperature;BMP_pressure;BME280_temperature;BME280_humidity;BME280_pressure;Samples;Min_cycle;Max_cycle;Signal;HPM_P1;HPM_P2
2021/12/08 00:01:44;;;;;;;2.80;1.95;;;3.50;99.90;;;;;;5092377;28;20536;-59
2021/12/08 00:04:10;;;;;;;10.13;3.37;;;3.50;99.90;;;;;;5092241;28;20168;-58
2021/12/08 00:06:36;;;;;;;15.77;4.20;;;3.50;99.90;;;;;;5092544;28;20249;-58
2021/12/08 00:09:16;;;;;;;13.82;4.38;;;3.50;99.90;;;;;;5092280;28;20847;-59
2021/12/08 00:14:26;;;;;;;9.63;3.30;;;3.50;99.90;;;;;;5084792;28;20217;-59
2021/12/08 00:16:51;;;;;;;5.68;2.67;;;3.50;99.90;;;;;;5091852;28;20180;-58
2021/12/08 00:19:17;;;;;;;7.07;2.28;;;3.40;99.90;;;;;;5101967;28;20172;-59
2021/12/08 00:21:42;;;;;;;7.03;2.70;;;3.40;99.90;;;;;;5091507;28;20192;-59
2021/12/08 00:24:08;;;;;;;19.17;5.00;;;3.30;99.90;;;;;;5088591;28;20261;-59
2021/12/08 00:26:35;;;;;;;12.23;3.70;;;3.30;99.90;;;;;;5091549;28;20364;-58
2021/12/08 00:29:02;;;;;;;10.13;3.38;;;3.30;99.90;;;;;;5092581;28;20637;-59
2021/12/08 00:31:27;;;;;;;6.22;2.83;;;3.30;99.90;;;;;;5091973;28;20180;-59
2021/12/08 00:33:53;;;;;;;8.75;2.78;;;3.20;99.90;;;;;;5092243;28;20183;-58
2021/12/08 00:36:25;;;;;;;6.18;2.20;;;3.20;99.90;;;;;;5092520;28;20534;-59
2021/12/08 00:38:51;;;;;;;15.65;3.35;;;3.10;99.90;;;;;;5091997;28;20184;-58
2021/12/08 00:41:16;;;;;;;6.22;1.98;;;3.10;99.90;;;;;;5092426;28;20259;-59
2021/12/08 00:43:42;;;;;;;3.25;1.80;;;3.10;99.90;;;;;;5091930;28;20184;-59
2021/12/08 00:46:08;;;;;;;3.27;2.20;;;3.10;99.90;;;;;;5092189;28;20212;-58
2021/12/08 00:48:34;;;;;;;4.47;2.60;;;3.10;99.90;;;;;;5091727;28;20564;-58
2021/12/08 00:50:59;;;;;;;2.85;1.85;;;3.10;99.90;;;;;;5092265;28;20176;-59
2021/12/08 00:53:25;;;;;;;5.32;1.70;;;3.20;99.90;;;;;;5090200;28;20180;-59
2021/12/08 00:55:51;;;;;;;6.15;3.75;;;3.20;99.90;;;;;;5091826;28;20280;-58
2021/12/08 00:58:17;;;;;;;18.67;9.30;;;3.20;99.90;;;;;;5092177;28;20203;-58
2021/12/08 01:00:50;;;;;;;14.57;8.32;;;3.30;99.90;;;;;;5091643;28;20172;-58
2021/12/08 01:03:16;;;;;;;5.70;3.97;;;3.30;99.90;;;;;;5091539;28;20247;-59
2021/12/08 01:05:47;;;;;;;3.95;2.67;;;3.30;99.90;;;;;;5091873;28;20180;-58
2021/12/08 01:08:12;;;;;;;6.03;2.40;;;3.30;99.90;;;;;;5091247;28;20187;-58
2021/12/08 01:10:40;;;;;;;4.32;1.92;;;3.20;99.90;;;;;;5091905;28;20180;-59
2021/12/08 01:13:08;;;;;;;4.53;2.30;;;3.20;99.90;;;;;;5091445;28;20191;-58
2021/12/08 01:15:35;;;;;;;3.33;1.77;;;3.10;99.90;;;;;;5091477;28;20173;-58
2021/12/08 01:18:01;;;;;;;4.35;2.10;;;3.10;99.90;;;;;;5091013;28;20187;-58
2021/12/08 01:20:27;;;;;;;3.42;1.92;;;3.00;99.90;;;;;;5091752;28;20188;-59
2021/12/08 01:22:53;;;;;;;5.15;2.05;;;3.10;99.90;;;;;;5091243;28;20177;-58
2021/12/08 01:25:19;;;;;;;2.42;1.60;;;3.10;99.90;;;;;;5091890;28;20194;-59
2021/12/08 01:27:44;;;;;;;3.60;1.88;;;3.10;99.90;;;;;;5090782;28;20247;-59
2021/12/08 01:30:11;;;;;;;7.50;3.22;;;3.10;99.90;;;;;;5091460;28;20176;-58
2021/12/08 01:32:36;;;;;;;11.55;4.28;;;3.10;99.90;;;;;;5094566;28;20249;-59
2021/12/08 01:35:04;;;;;;;7.05;3.08;;;3.10;99.90;;;;;;5099583;28;20643;-58
2021/12/08 01:37:30;;;;;;;7.80;3.20;;;3.20;99.90;;;;;;5089952;28;20245;-59
2021/12/08 01:39:56;;;;;;;3.85;2.33;;;3.20;99.90;;;;;;5091604;28;20179;-59
2021/12/08 01:42:30;;;;;;;6.40;2.85;;;3.20;99.90;;;;;;5090400;28;20549;-58
2021/12/08 01:47:40;;;;;;;5.60;2.40;;;3.20;99.90;;;;;;5085624;28;20581;-58
2021/12/08 01:50:09;;;;;;;3.90;2.50;;;3.20;99.90;;;;;;5091725;28;20180;-58
2021/12/08 01:52:35;;;;;;;5.07;2.97;;;3.20;99.90;;;;;;5090690;28;20558;-59
2021/12/08 01:55:00;;;;;;;10.73;2.97;;;3.20;99.90;;;;;;5090811;28;20779;-58
2021/12/08 01:57:26;;;;;;;7.25;2.80;;;3.30;99.90;;;;;;5090498;28;20184;-59
2021/12/08 01:59:52;;;;;;;74.90;15.27;;;3.30;99.90;;;;;;5090993;28;20191;-59
2021/12/08 02:02:18;;;;;;;89.93;17.83;;;3.20;99.90;;;;;;5091151;28;20643;-58
2021/12/08 02:04:43;;;;;;;100.47;19.48;;;3.20;99.90;;;;;;5091420;28;20263;-59
2021/12/08 02:07:09;;;;;;;44.93;10.00;;;3.10;99.90;;;;;;5090985;28;20211;-59
2021/12/08 02:09:35;;;;;;;24.50;6.93;;;3.10;99.90;;;;;;5090640;28;20237;-59
2021/12/08 02:12:00;;;;;;;16.42;5.43;;;3.10;99.90;;;;;;5090676;28;20184;-58
2021/12/08 02:14:26;;;;;;;10.55;4.20;;;3.10;99.90;;;;;;5095085;28;20537;-58
2021/12/08 02:16:55;;;;;;;7.17;3.93;;;3.00;99.90;;;;;;5093659;28;20229;-58
2021/12/08 02:19:22;;;;;;;6.88;3.30;;;3.00;99.90;;;;;;5094896;28;20180;-59
2021/12/08 02:21:52;;;;;;;7.37;3.43;;;3.00;99.90;;;;;;5094820;28;20180;-58
2021/12/08 02:24:18;;;;;;;7.85;3.47;;;3.10;99.90;;;;;;5094962;28;20165;-59
2021/12/08 02:26:46;;;;;;;6.53;3.58;;;3.10;99.90;;;;;;5094724;28;20243;-58
2021/12/08 02:29:23;;;;;;;4.18;2.60;;;3.10;99.90;;;;;;5095012;28;20172;-58
2021/12/08 02:31:57;;;;;;;3.80;2.20;;;3.10;99.90;;;;;;5094919;28;20168;-58
2021/12/08 02:48:06;;;;;;;4.63;2.47;;;2.90;99.90;;;;;;5094487;28;20235;-59
2021/12/08 02:50:37;;;;;;;3.90;2.20;;;2.90;99.90;;;;;;5094406;28;20534;-58
2021/12/08 02:53:04;;;;;;;3.37;2.63;;;2.90;99.90;;;;;;5094657;28;20183;-59
2021/12/08 02:55:30;;;;;;;2.97;2.10;;;2.80;99.90;;;;;;5093876;28;20682;-59
2021/12/08 02:57:57;;;;;;;3.87;2.40;;;2.80;99.90;;;;;;5093671;28;20226;-59
2021/12/08 03:00:26;;;;;;;2.77;2.30;;;2.80;99.90;;;;;;5082865;28;20196;-59
2021/12/08 03:02:54;;;;;;;3.53;2.08;;;2.80;99.90;;;;;;5074084;28;20198;-59
2021/12/08 03:05:20;;;;;;;3.05;1.98;;;2.90;99.90;;;;;;5077542;28;20189;-59
2021/12/08 03:07:46;;;;;;;3.13;2.30;;;2.90;99.90;;;;;;5083711;28;20682;-58
2021/12/08 03:10:15;;;;;;;3.78;2.10;;;3.00;99.90;;;;;;5094023;28;20229;-59
2021/12/08 03:12:42;;;;;;;2.40;1.80;;;3.10;99.90;;;;;;5084413;28;20231;-59
2021/12/08 03:15:09;;;;;;;3.03;2.00;;;3.10;99.90;;;;;;5077057;28;20678;-58
2021/12/08 03:17:35;;;;;;;2.90;1.97;;;3.20;99.90;;;;;;5093585;28;20191;-58
2021/12/08 03:20:06;;;;;;;4.60;2.38;;;3.20;99.90;;;;;;5082608;28;20540;-59
2021/12/08 03:22:34;;;;;;;3.70;2.40;;;3.20;99.90;;;;;;5084003;28;20270;-59
2021/12/08 03:25:01;;;;;;;2.60;2.10;;;3.30;99.90;;;;;;5088554;28;20208;-58
2021/12/08 03:27:34;;;;;;;2.13;1.92;;;3.30;99.90;;;;;;5092455;28;20624;-59
2021/12/08 03:30:12;;;;;;;2.97;1.92;;;3.30;99.90;;;;;;5093518;28;20182;-58
2021/12/08 03:32:39;;;;;;;3.88;2.20;;;3.40;99.90;;;;;;5092955;28;20183;-58
2021/12/08 03:35:09;;;;;;;4.32;2.60;;;3.40;99.90;;;;;;5093419;28;20198;-59
2021/12/08 03:37:38;;;;;;;2.78;2.33;;;3.40;99.90;;;;;;5084796;28;20655;-59
2021/12/08 03:40:08;;;;;;;2.55;2.35;;;3.40;99.90;;;;;;5073374;28;20208;-58
2021/12/08 03:42:37;;;;;;;3.20;2.70;;;3.60;99.90;;;;;;5083782;28;20195;-59
2021/12/08 03:45:08;;;;;;;7.75;3.63;;;3.50;99.90;;;;;;5080708;28;20255;-58
2021/12/08 03:47:37;;;;;;;6.65;3.42;;;3.40;99.90;;;;;;5093069;28;20243;-59
2021/12/08 03:50:05;;;;;;;4.60;3.38;;;3.40;99.90;;;;;;5085895;28;20204;-59
2021/12/08 03:52:31;;;;;;;5.65;3.38;;;3.30;99.90;;;;;;5091816;28;20223;-59
2021/12/08 03:54:56;;;;;;;5.68;4.30;;;3.30;99.90;;;;;;5079312;28;20240;-58
2021/12/08 03:57:22;;;;;;;7.00;3.83;;;3.30;99.90;;;;;;5085482;28;20191;-59
2021/12/08 03:59:48;;;;;;;7.53;4.63;;;3.30;99.90;;;;;;5092641;28;20169;-59
2021/12/08 04:02:13;;;;;;;7.45;5.05;;;3.30;99.90;;;;;;5092780;28;20233;-58
2021/12/08 04:04:48;;;;;;;10.10;5.80;;;3.30;99.90;;;;;;5092930;28;20176;-59
2021/12/08 04:07:16;;;;;;;6.10;4.50;;;3.30;99.90;;;;;;5092608;28;20249;-58
2021/12/08 04:09:44;;;;;;;4.72;3.22;;;3.30;99.90;;;;;;5092740;28;20257;-59
2021/12/08 04:12:13;;;;;;;5.25;3.40;;;3.40;99.90;;;;;;5092657;28;20222;-59
2021/12/08 04:14:46;;;;;;;4.72;3.00;;;3.40;99.90;;;;;;5092638;28;20286;-58
2021/12/08 04:17:31;;;;;;;3.60;2.70;;;3.40;99.90;;;;;;5092110;28;20168;-59
2021/12/08 04:20:00;;;;;;;3.22;2.55;;;3.40;99.90;;;;;;5072610;28;20580;-59
2021/12/08 04:22:33;;;;;;;3.97;2.60;;;3.40;99.90;;;;;;5090571;28;20553;-59
2021/12/08 04:25:03;;;;;;;4.85;2.95;;;3.40;99.90;;;;;;5092411;28;20200;-59
2021/12/08 04:27:32;;;;;;;5.53;3.03;;;3.50;99.90;;;;;;5092152;28;20215;-59
2021/12/08 04:29:58;;;;;;;4.82;2.72;;;3.50;99.90;;;;;;5092116;28;20179;-60
2021/12/08 04:32:26;;;;;;;4.57;2.58;;;3.60;99.90;;;;;;5092431;28;20226;-59
2021/12/08 04:34:58;;;;;;;4.53;2.50;;;3.70;99.90;;;;;;5092550;28;20168;-59
2021/12/08 04:37:30;;;;;;;4.07;2.28;;;3.70;99.90;;;;;;5091324;28;20215;-59
2021/12/08 04:40:27;;;;;;;3.47;2.38;;;3.80;99.90;;;;;;5092418;28;20221;-59
2021/12/08 04:43:06;;;;;;;4.13;3.05;;;3.80;99.90;;;;;;5092314;28;20176;-60
2021/12/08 04:46:06;;;;;;;5.03;2.83;;;3.80;99.90;;;;;;5092148;28;20176;-59
2021/12/08 05:07:17;;;;;;;3.92;2.65;;;3.90;99.90;;;;;;5090256;28;20216;-58
2021/12/08 05:09:46;;;;;;;4.70;2.90;;;3.90;99.90;;;;;;5091760;28;20189;-59
2021/12/08 05:12:16;;;;;;;3.47;2.70;;;3.90;99.90;;;;;;5090990;28;20191;-58
2021/12/08 05:14:49;;;;;;;4.18;2.45;;;3.90;99.90;;;;;;5091229;28;20582;-59
2021/12/08 05:17:22;;;;;;;3.90;2.60;;;4.00;99.90;;;;;;5090751;28;20199;-58
2021/12/08 05:19:53;;;;;;;3.17;2.72;;;4.00;99.90;;;;;;5091232;28;20661;-58
2021/12/08 05:22:33;;;;;;;5.00;3.47;;;4.10;99.90;;;;;;5091334;28;20188;-60
2021/12/08 05:25:02;;;;;;;4.43;2.92;;;4.10;99.90;;;;;;5091493;28;20673;-59
2021/12/08 05:27:34;;;;;;;5.18;2.78;;;4.10;99.90;;;;;;5091402;28;20261;-59
2021/12/08 05:30:12;;;;;;;3.67;2.90;;;4.10;99.90;;;;;;5091540;28;20179;-58
2021/12/08 05:32:38;;;;;;;4.53;2.63;;;4.20;99.90;;;;;;5091525;28;20180;-58
2021/12/08 05:35:07;;;;;;;5.45;2.72;;;4.20;99.90;;;;;;5090823;28;20183;-59
2021/12/08 05:37:33;;;;;;;3.00;2.70;;;4.30;99.90;;;;;;5090537;28;20643;-60
2021/12/08 05:39:59;;;;;;;4.60;2.65;;;4.30;99.90;;;;;;5091497;28;20191;-60
2021/12/08 05:42:31;;;;;;;5.68;2.40;;;4.30;99.90;;;;;;5091702;28;20184;-60
2021/12/08 05:44:57;;;;;;;3.55;2.63;;;4.30;99.90;;;;;;5091802;28;20188;-60
2021/12/08 05:47:27;;;;;;;5.22;3.08;;;4.30;99.90;;;;;;5092317;28;20277;-60
2021/12/08 05:49:54;;;;;;;5.00;3.22;;;4.30;99.90;;;;;;5095650;28;20639;-60
2021/12/08 05:52:20;;;;;;;4.90;3.03;;;4.30;99.90;;;;;;5095649;28;20184;-60
2021/12/08 05:54:51;;;;;;;4.85;3.20;;;4.30;99.90;;;;;;5095308;28;20216;-60
2021/12/08 05:57:33;;;;;;;4.05;3.10;;;4.30;99.90;;;;;;5095605;28;20188;-60
2021/12/08 05:59:59;;;;;;;5.07;3.80;;;4.30;99.90;;;;;;5095626;28;20196;-60
2021/12/08 06:02:34;;;;;;;6.10;4.05;;;4.30;99.90;;;;;;5095413;28;20542;-60
2021/12/08 06:05:00;;;;;;;4.40;3.20;;;4.30;99.90;;;;;;5095523;28;20182;-60
2021/12/08 06:07:26;;;;;;;6.90;3.75;;;4.30;99.90;;;;;;5095054;28;20570;-60
2021/12/08 06:09:55;;;;;;;4.45;3.35;;;4.30;99.90;;;;;;5095262;28;20180;-60
2021/12/08 06:12:22;;;;;;;6.45;4.25;;;4.30;99.90;;;;;;5095264;28;20172;-60
2021/12/08 06:14:55;;;;;;;6.50;3.67;;;4.30;99.90;;;;;;5095353;28;20222;-60
2021/12/08 06:17:27;;;;;;;12.80;5.88;;;4.30;99.90;;;;;;5095250;28;20651;-60
2021/12/08 06:19:53;;;;;;;13.00;6.72;;;4.30;99.90;;;;;;5095299;28;20176;-60
2021/12/08 06:22:21;;;;;;;17.15;7.93;;;4.40;99.90;;;;;;5095171;28;20563;-60
2021/12/08 06:24:48;;;;;;;17.92;8.13;;;4.40;99.90;;;;;;5095102;28;20260;-60
2021/12/08 06:27:13;;;;;;;13.77;6.80;;;4.40;99.90;;;;;;5094961;28;20215;-60
2021/12/08 06:29:41;;;;;;;11.18;5.32;;;4.40;99.90;;;;;;5094929;28;20222;-60
2021/12/08 06:32:08;;;;;;;8.35;4.25;;;4.40;99.90;;;;;;5094965;28;20222;-60
2021/12/08 06:34:36;;;;;;;7.80;4.30;;;4.40;99.90;;;;;;5093735;28;20705;-60
2021/12/08 06:37:15;;;;;;;7.20;4.28;;;4.40;99.90;;;;;;5094816;28;20187;-60
2021/12/08 06:39:45;;;;;;;6.70;3.85;;;4.40;99.90;;;;;;5094842;28;20207;-60
2021/12/08 06:42:15;;;;;;;8.93;4.28;;;4.40;99.90;;;;;;5094639;28;20651;-59
2021/12/08 06:44:45;;;;;;;6.93;4.40;;;4.40;99.90;;;;;;5094573;28;20191;-59
2021/12/08 06:47:16;;;;;;;6.47;4.32;;;4.40;99.90;;;;;;5094320;28;20215;-59
2021/12/08 06:49:45;;;;;;;7.07;3.83;;;4.40;99.90;;;;;;5094581;28;20211;-59
2021/12/08 06:52:15;;;;;;;7.43;4.45;;;4.40;99.90;;;;;;5094514;28;20190;-59
2021/12/08 06:54:46;;;;;;;4.88;3.70;;;4.40;99.90;;;;;;5094256;28;20582;-59
2021/12/08 06:57:38;;;;;;;6.55;3.80;;;4.40;99.90;;;;;;5094509;28;20242;-60
2021/12/08 07:00:20;;;;;;;6.70;4.25;;;4.50;99.90;;;;;;5093404;28;20207;-60
2021/12/08 07:05:52;;;;;;;17.58;7.85;;;4.50;99.90;;;;;;5094312;28;20643;-60
2021/12/08 07:08:14;;;;;;;16.17;8.40;;;4.50;99.90;;;;;;5093972;28;20709;-59
2021/12/08 07:10:43;;;;;;;10.48;5.85;;;4.50;99.90;;;;;;5092653;28;20180;-60
2021/12/08 07:13:16;;;;;;;14.80;6.88;;;4.50;99.90;;;;;;5094047;28;20710;-60
2021/12/08 07:16:02;;;;;;;15.27;7.57;;;4.50;99.90;;;;;;5094109;28;20650;-60
2021/12/08 07:18:39;;;;;;;12.07;5.85;;;4.50;99.90;;;;;;5093639;28;20188;-60
2021/12/08 07:21:06;;;;;;;14.48;6.38;;;4.50;99.90;;;;;;5093960;28;20665;-60
2021/12/08 07:23:47;;;;;;;13.15;6.63;;;4.50;99.90;;;;;;5093912;28;20180;-60
2021/12/08 07:26:41;;;;;;;8.27;5.15;;;4.50;99.90;;;;;;5093894;28;20168;-59
2021/12/08 07:29:13;;;;;;;6.78;4.32;;;4.40;99.90;;;;;;5090848;28;20320;-60
2021/12/08 07:31:46;;;;;;;7.10;3.88;;;4.40;99.90;;;;;;5093766;28;20160;-60
2021/12/08 07:34:17;;;;;;;5.55;3.75;;;4.40;99.90;;;;;;5093763;28;20182;-60
2021/12/08 07:36:47;;;;;;;7.35;5.72;;;4.50;99.90;;;;;;5093749;28;20183;-59
2021/12/08 07:39:29;;;;;;;8.23;5.43;;;4.50;99.90;;;;;;5093755;28;20179;-60
2021/12/08 07:42:01;;;;;;;10.20;5.85;;;4.50;99.90;;;;;;5093579;28;20291;-59
2021/12/08 07:44:27;;;;;;;8.93;5.35;;;4.60;99.90;;;;;;5093603;28;20168;-59
2021/12/08 07:47:01;;;;;;;10.20;5.88;;;4.60;99.90;;;;;;5093555;28;20231;-60
2021/12/08 07:49:32;;;;;;;9.43;6.05;;;4.60;99.90;;;;;;5093410;28;20172;-60
2021/12/08 07:51:59;;;;;;;11.18;6.10;;;4.70;99.90;;;;;;5093384;28;20179;-60
2021/12/08 07:54:26;;;;;;;10.57;6.40;;;4.70;99.90;;;;;;5093200;28;20176;-60
2021/12/08 07:56:56;;;;;;;13.68;6.55;;;4.70;99.90;;;;;;5093209;28;20192;-60
2021/12/08 07:59:22;;;;;;;9.95;5.78;;;4.70;99.90;;;;;;5093064;28;20220;-60
2021/12/08 08:01:52;;;;;;;8.60;5.43;;;4.80;99.90;;;;;;5093108;28;20184;-60
2021/12/08 08:04:21;;;;;;;12.05;6.07;;;4.80;99.90;;;;;;5093025;28;20585;-61
2021/12/08 08:06:52;;;;;;;18.17;7.95;;;4.80;99.90;;;;;;5092906;28;20220;-60
2021/12/08 08:09:22;;;;;;;20.33;9.60;;;4.80;99.90;;;;;;5092810;28;20594;-60
2021/12/08 08:11:55;;;;;;;17.95;8.90;;;4.80;99.90;;;;;;5092834;28;20179;-60
2021/12/08 08:14:24;;;;;;;19.92;8.27;;;4.90;99.90;;;;;;5093025;28;20164;-60
2021/12/08 08:16:55;;;;;;;17.05;8.55;;;4.90;99.90;;;;;;5092751;28;20558;-60
2021/12/08 08:19:26;;;;;;;9.93;6.30;;;4.90;99.90;;;;;;5092838;28;20172;-60
2021/12/08 08:21:56;;;;;;;14.13;6.78;;;4.90;99.90;;;;;;5092809;28;20242;-60
2021/12/08 08:24:22;;;;;;;10.73;5.57;;;4.90;99.90;;;;;;5092805;28;20199;-60
2021/12/08 08:26:52;;;;;;;13.25;6.22;;;5.00;99.90;;;;;;5092658;28;20232;-60
2021/12/08 08:29:18;;;;;;;20.20;7.60;;;5.00;99.90;;;;;;5092527;28;20556;-60
2021/12/08 08:31:59;;;;;;;39.38;13.15;;;5.00;99.90;;;;;;5092624;28;20176;-60
2021/12/08 08:34:34;;;;;;;37.17;16.13;;;5.00;99.90;;;;;;5092602;28;20366;-59
2021/12/08 08:37:01;;;;;;;23.55;9.48;;;5.00;99.90;;;;;;5092698;28;20539;-60
2021/12/08 08:39:32;;;;;;;15.63;7.60;;;5.00;99.90;;;;;;5092428;28;20176;-60
2021/12/08 08:42:17;;;;;;;17.83;9.10;;;5.00;99.90;;;;;;5092313;28;20672;-59
2021/12/08 08:44:55;;;;;;;15.35;7.80;;;5.10;99.90;;;;;;5092473;28;20186;-60
2021/12/08 08:47:30;;;;;;;13.60;8.30;;;5.10;99.90;;;;;;5092314;28;20211;-61
2021/12/08 08:49:56;;;;;;;11.30;6.45;;;5.10;99.90;;;;;;5092152;28;20721;-60
2021/12/08 08:52:31;;;;;;;10.93;5.35;;;5.10;99.90;;;;;;5092233;28;20266;-60
2021/12/08 08:54:59;;;;;;;7.28;4.97;;;5.10;99.90;;;;;;5091935;28;20214;-60
2021/12/08 08:57:34;;;;;;;7.43;4.30;;;5.10;99.90;;;;;;5092184;28;20268;-60
2021/12/08 09:00:25;;;;;;;6.45;3.72;;;5.10;99.90;;;;;;5092237;28;20215;-60
2021/12/08 09:02:53;;;;;;;5.15;3.75;;;5.10;99.90;;;;;;5092242;28;20255;-60
2021/12/08 09:05:34;;;;;;;5.95;3.67;;;5.20;99.90;;;;;;5091970;28;20248;-60
2021/12/08 09:08:03;;;;;;;7.15;4.20;;;5.20;99.90;;;;;;5092043;28;20254;-60
2021/12/08 09:10:37;;;;;;;8.68;4.88;;;5.30;99.90;;;;;;5091857;28;20262;-60
2021/12/08 09:13:09;;;;;;;20.23;9.35;;;5.40;99.90;;;;;;5092204;28;20183;-60
2021/12/08 09:15:40;;;;;;;15.77;7.95;;;5.40;99.90;;;;;;5091887;28;20180;-60
2021/12/08 09:18:21;;;;;;;7.85;5.43;;;5.50;99.90;;;;;;5092078;28;20263;-60
2021/12/08 09:21:08;;;;;;;10.52;5.63;;;5.50;99.90;;;;;;5092073;28;20745;-60
2021/12/08 09:23:43;;;;;;;15.90;6.68;;;5.50;99.90;;;;;;5091321;28;20172;-60
2021/12/08 09:26:13;;;;;;;10.00;5.22;;;5.50;99.90;;;;;;5091950;28;20183;-60
2021/12/08 09:28:49;;;;;;;8.80;4.53;;;5.50;99.90;;;;;;5091500;28;20643;-59
2021/12/08 09:31:23;;;;;;;5.70;4.05;;;5.40;99.90;;;;;;5091713;28;20524;-60
2021/12/08 09:34:15;;;;;;;8.15;4.85;;;5.40;99.90;;;;;;5091960;28;20183;-60
2021/12/08 09:36:46;;;;;;;6.82;4.03;;;5.40;99.90;;;;;;5091796;28;20187;-60
2021/12/08 09:39:24;;;;;;;5.25;2.88;;;5.40;99.90;;;;;;5091914;28;20176;-59
2021/12/08 09:41:52;;;;;;;5.38;3.00;;;5.40;99.90;;;;;;5091885;28;20183;-60
2021/12/08 09:44:31;;;;;;;6.10;3.20;;;5.40;99.90;;;;;;5091677;28;20168;-60
2021/12/08 09:46:57;;;;;;;6.15;3.72;;;5.40;99.90;;;;;;5091620;28;20286;-60
2021/12/08 09:49:26;;;;;;;7.22;3.40;;;5.40;99.90;;;;;;5091635;28;20260;-60
2021/12/08 09:51:54;;;;;;;6.25;3.72;;;5.40;99.90;;;;;;5091519;28;20647;-60
2021/12/08 09:54:20;;;;;;;7.00;3.40;;;5.40;99.90;;;;;;5091525;28;20535;-60
2021/12/08 09:56:49;;;;;;;4.03;3.13;;;5.50;99.90;;;;;;5091533;28;20224;-60
2021/12/08 09:59:15;;;;;;;4.25;3.10;;;5.50;99.90;;;;;;5091534;28;20180;-60
2021/12/08 10:01:42;;;;;;;7.43;3.10;;;5.70;99.90;;;;;;5091412;28;20613;-60
2021/12/08 10:04:10;;;;;;;8.45;4.82;;;5.70;99.90;;;;;;5091494;28;20720;-60
2021/12/08 10:06:39;;;;;;;30.23;6.63;;;5.80;99.90;;;;;;5091337;28;20216;-59
2021/12/08 10:09:05;;;;;;;23.55;5.50;;;5.90;99.90;;;;;;5091771;28;20515;-60
2021/12/08 10:11:32;;;;;;;12.93;6.15;;;6.00;99.90;;;;;;5091392;28;20180;-60
2021/12/08 10:13:59;;;;;;;29.42;5.07;;;6.10;99.90;;;;;;5091358;28;20176;-60
2021/12/08 10:16:26;;;;;;;12.00;4.78;;;6.20;99.90;;;;;;5091250;28;20184;-60
2021/12/08 10:18:53;;;;;;;45.28;8.10;;;6.20;99.90;;;;;;5091322;28;20712;-60
2021/12/08 10:21:20;;;;;;;36.88;8.10;;;6.30;99.90;;;;;;5091262;28;20183;-60
2021/12/08 10:23:48;;;;;;;35.20;7.45;;;6.30;99.90;;;;;;5091366;28;20708;-60
2021/12/08 10:26:25;;;;;;;14.57;6.25;;;6.40;99.90;;;;;;5091313;28;20175;-60
2021/12/08 10:28:56;;;;;;;37.92;7.82;;;6.30;99.90;;;;;;5091406;28;20192;-59
2021/12/08 10:31:31;;;;;;;41.95;8.60;;;6.40;99.90;;;;;;5091255;28;20168;-60
2021/12/08 10:36:49;;;;;;;29.23;9.48;;;6.40;99.90;;;;;;5094902;28;20180;-60
2021/12/08 10:39:24;;;;;;;28.80;8.25;;;6.40;99.90;;;;;;5094757;28;20579;-60
2021/12/08 10:41:49;;;;;;;62.22;12.20;;;6.50;99.90;;;;;;5094916;28;20176;-60
2021/12/08 10:44:20;;;;;;;24.25;6.22;;;6.50;99.90;;;;;;5094650;28;20195;-60
2021/12/08 10:46:46;;;;;;;11.75;5.22;;;6.40;99.90;;;;;;5094825;28;20208;-60
2021/12/08 10:54:45;;;;;;;19.90;7.97;;;6.30;99.90;;;;;;5094676;28;20178;-60
2021/12/08 10:57:24;;;;;;;19.35;6.75;;;6.30;99.90;;;;;;5094596;28;20183;-59
2021/12/08 11:00:06;;;;;;;11.95;5.40;;;6.40;99.90;;;;;;5094544;28;20175;-60
2021/12/08 11:02:37;;;;;;;7.70;4.03;;;6.40;99.90;;;;;;5094336;28;20184;-60
2021/12/08 11:05:05;;;;;;;7.38;3.28;;;6.40;99.90;;;;;;5094391;28;20176;-60
2021/12/08 11:07:31;;;;;;;6.00;3.55;;;6.40;99.90;;;;;;5094114;28;20216;-60
2021/12/08 11:09:57;;;;;;;7.22;4.35;;;6.40;99.90;;;;;;5094114;28;20222;-59
2021/12/08 11:12:38;;;;;;;5.65;3.78;;;6.50;99.90;;;;;;5094073;28;20211;-60
2021/12/08 11:15:16;;;;;;;8.93;5.07;;;6.50;99.90;;;;;;5094224;28;20180;-59
2021/12/08 11:17:41;;;;;;;6.47;3.75;;;6.60;99.90;;;;;;5094021;28;20187;-60
2021/12/08 11:20:19;;;;;;;4.90;3.60;;;6.70;99.90;;;;;;5094074;28;20183;-59
2021/12/08 11:23:01;;;;;;;5.35;3.80;;;6.80;99.90;;;;;;5093908;28;20180;-59
2021/12/08 11:25:45;;;;;;;8.68;4.45;;;6.80;99.90;;;;;;5093836;28;20204;-59
2021/12/08 11:28:29;;;;;;;7.90;4.43;;;6.80;99.90;;;;;;5093738;28;20215;-59
2021/12/08 11:31:20;;;;;;;6.43;4.28;;;6.90;99.90;;;;;;5093783;28;20225;-59
2021/12/08 11:33:54;;;;;;;8.25;4.30;;;6.90;99.90;;;;;;5093679;28;20613;-59
2021/12/08 11:36:25;;;;;;;7.05;4.20;;;7.00;99.90;;;;;;5093679;28;20549;-59
2021/12/08 11:38:52;;;;;;;4.10;3.50;;;7.00;99.90;;;;;;5093869;28;20228;-59
2021/12/08 11:41:44;;;;;;;6.50;3.53;;;7.00;99.90;;;;;;5093520;28;20173;-59
2021/12/08 11:44:15;;;;;;;4.03;2.95;;;7.00;99.90;;;;;;5086935;28;20192;-59
2021/12/08 11:46:48;;;;;;;5.70;3.53;;;7.10;99.90;;;;;;5092818;28;20196;-59
2021/12/08 11:49:14;;;;;;;6.88;3.55;;;7.10;99.90;;;;;;5093613;28;20176;-59
2021/12/08 11:51:42;;;;;;;6.10;3.88;;;7.10;99.90;;;;;;5093296;28;20184;-59
2021/12/08 11:54:29;;;;;;;8.10;4.55;;;7.10;99.90;;;;;;5093212;28;20676;-59
2021/12/08 11:57:00;;;;;;;8.18;5.25;;;7.10;99.90;;;;;;5092775;28;20248;-59
2021/12/08 11:59:26;;;;;;;6.47;4.65;;;7.10;99.90;;;;;;5093224;28;20285;-59
2021/12/08 12:01:53;;;;;;;6.35;4.97;;;7.10;99.90;;;;;;5093322;28;20208;-59
2021/12/08 12:04:18;;;;;;;15.13;6.60;;;7.10;99.90;;;;;;5093029;28;20558;-59
2021/12/08 12:06:44;;;;;;;12.25;6.15;;;7.10;99.90;;;;;;5092938;28;20235;-59
2021/12/08 12:09:10;;;;;;;8.25;5.75;;;7.20;99.90;;;;;;5093007;28;20211;-59
2021/12/08 12:11:36;;;;;;;8.27;4.78;;;7.10;99.90;;;;;;5092797;28;20199;-59
2021/12/08 12:14:04;;;;;;;7.00;4.65;;;7.20;99.90;;;;;;5093095;28;20180;-59
2021/12/08 12:16:30;;;;;;;7.65;4.60;;;7.20;99.90;;;;;;5093053;28;20639;-59
2021/12/08 12:19:01;;;;;;;24.25;6.50;;;7.20;99.90;;;;;;5092893;28;20180;-59
2021/12/08 12:21:51;;;;;;;22.85;6.50;;;7.10;99.90;;;;;;5092785;28;20267;-59
2021/12/08 12:24:34;;;;;;;14.23;5.45;;;7.10;99.90;;;;;;5092654;28;20173;-59
2021/12/08 12:27:17;;;;;;;12.50;4.95;;;7.10;99.90;;;;;;5092790;28;20220;-59
2021/12/08 12:30:04;;;;;;;23.25;6.75;;;7.00;99.90;;;;;;5092693;28;20176;-59
2021/12/08 12:32:47;;;;;;;10.55;5.65;;;7.00;99.90;;;;;;5092559;28;20183;-59
2021/12/08 12:35:33;;;;;;;13.05;5.03;;;6.90;99.90;;;;;;5092678;28;20184;-60
2021/12/08 12:38:03;;;;;;;11.60;4.45;;;6.90;99.90;;;;;;5091999;28;20194;-59
2021/12/08 12:40:33;;;;;;;5.63;3.90;;;6.80;99.90;;;;;;5092451;28;20176;-59
2021/12/08 12:42:59;;;;;;;5.93;4.07;;;6.80;99.90;;;;;;5092373;28;20176;-59
2021/12/08 12:45:35;;;;;;;11.48;4.38;;;6.70;99.90;;;;;;5092443;28;20184;-59
2021/12/08 12:48:08;;;;;;;7.53;4.28;;;6.70;99.90;;;;;;5092212;28;20215;-59
2021/12/08 12:50:52;;;;;;;7.80;4.35;;;6.70;99.90;;;;;;5092147;28;20687;-59
2021/12/08 12:53:45;;;;;;;16.52;5.35;;;6.70;99.90;;;;;;5092164;28;20180;-59
2021/12/08 12:56:38;;;;;;;14.32;4.75;;;6.70;99.90;;;;;;5092027;28;20231;-59
2021/12/08 12:59:17;;;;;;;15.10;4.60;;;6.70;99.90;;;;;;5091742;28;20635;-59
2021/12/08 13:01:47;;;;;;;29.80;7.55;;;6.60;99.90;;;;;;5092162;28;20175;-59
2021/12/08 13:04:24;;;;;;;24.13;6.45;;;6.60;99.90;;;;;;5092194;28;20180;-59
2021/12/08 13:06:52;;;;;;;9.45;5.43;;;6.60;99.90;;;;;;5091878;28;20207;-59
2021/12/08 13:09:35;;;;;;;15.90;5.78;;;6.60;99.90;;;;;;5091766;28;20188;-59
2021/12/08 13:12:11;;;;;;;31.60;7.68;;;6.50;99.90;;;;;;5092024;28;20168;-59
2021/12/08 13:14:38;;;;;;;13.60;6.72;;;6.50;99.90;;;;;;5091880;28;20184;-59
2021/12/08 13:17:10;;;;;;;15.43;6.88;;;6.50;99.90;;;;;;5091918;28;20180;-59
2021/12/08 13:19:41;;;;;;;36.17;7.93;;;6.50;99.90;;;;;;5091688;28;20172;-59
2021/12/08 13:22:07;;;;;;;20.02;6.88;;;6.50;99.90;;;;;;5092039;28;20245;-59
2021/12/08 13:24:40;;;;;;;23.85;6.78;;;6.50;99.90;;;;;;5091854;28;20639;-59
2021/12/08 13:27:26;;;;;;;35.38;7.63;;;6.40;99.90;;;;;;5091874;28;20211;-59
2021/12/08 13:30:15;;;;;;;22.08;6.88;;;6.40;99.90;;;;;;5091953;28;20184;-59
2021/12/08 13:32:46;;;;;;;25.40;6.63;;;6.40;99.90;;;;;;5091731;28;20176;-59
2021/12/08 13:35:30;;;;;;;23.38;6.93;;;6.40;99.90;;;;;;5091936;28;20172;-59
2021/12/08 13:37:57;;;;;;;35.13;8.43;;;6.40;99.90;;;;;;5091699;28;20325;-59
2021/12/08 13:40:45;;;;;;;36.67;8.90;;;6.40;99.90;;;;;;5091758;28;20635;-59
2021/12/08 13:43:30;;;;;;;20.60;6.82;;;6.40;99.90;;;;;;5091805;28;20176;-59
2021/12/08 13:45:56;;;;;;;34.72;7.63;;;6.40;99.90;;;;;;5091730;28;20176;-59
2021/12/08 13:48:22;;;;;;;23.63;6.80;;;6.40;99.90;;;;;;5091641;28;20221;-59
2021/12/08 13:50:48;;;;;;;28.88;6.60;;;6.40;99.90;;;;;;5091742;28;20211;-59
2021/12/08 13:53:16;;;;;;;21.65;6.75;;;6.40;99.90;;;;;;5091679;28;20557;-59
2021/12/08 13:55:48;;;;;;;15.02;5.70;;;6.30;99.90;;;;;;5091295;28;20707;-59
2021/12/08 13:58:16;;;;;;;14.18;6.20;;;6.30;99.90;;;;;;5091670;28;20180;-59
2021/12/08 14:00:48;;;;;;;22.30;6.55;;;6.30;99.90;;;;;;5091505;28;20176;-59
2021/12/08 14:03:39;;;;;;;23.50;7.72;;;6.30;99.90;;;;;;5091560;28;20181;-59